sensor_id;sensor_type;location;lat;lon;timestamp;P1;durP1;ratioP1;P2;durP2;ratioP2
23680;SDS011;62915;50.832;4.462;2022-11-18T00:00:18;3.20;;;2.00;;
23680;SDS011;62915;50.832;4.462;2022-11-18T00:02:44;7.13;;;2.15;;
23680;SDS011;62915;50.832;4.462;2022-11-18T00:05:10;5.85;;;1.98;;
23680;SDS011;62915;50.832;4.462;2022-11-18T00:07:36;5.07;;;2.00;;
23680;SDS011;62915;50.832;4.462;2022-11-18T00:10:02;5.15;;;2.33;;
23680;SDS011;62915;50.832;4.462;2022-11-18T00:12:28;4.93;;;1.70;;
23680;SDS011;62915;50.832;4.462;2022-11-18T00:15:12;6.05;;;1.95;;
23680;SDS011;62915;50.832;4.462;2022-11-18T00:17:37;3.58;;;1.90;;
23680;SDS011;62915;50.832;4.462;2022-11-18T00:20:03;6.18;;;2.00;;
23680;SDS011;62915;50.832;4.462;2022-11-18T00:22:29;3.13;;;2.08;;
23680;SDS011;62915;50.832;4.462;2022-11-18T00:24:56;3.58;;;2.08;;
23680;SDS011;62915;50.832;4.462;2022-11-18T00:27:21;4.30;;;2.08;;
23680;SDS011;62915;50.832;4.462;2022-11-18T00:29:47;5.10;;;1.88;;
23680;SDS011;62915;50.832;4.462;2022-11-18T00:32:13;7.13;;;2.40;;
23680;SDS011;62915;50.832;4.462;2022-11-18T00:34:39;5.10;;;2.00;;
23680;SDS011;62915;50.832;4.462;2022-11-18T00:37:06;5.07;;;2.10;;
23680;SDS011;62915;50.832;4.462;2022-11-18T00:39:32;5.50;;;2.33;;
23680;SDS011;62915;50.832;4.462;2022-11-18T00:41:58;7.40;;;2.13;;
23680;SDS011;62915;50.832;4.462;2022-11-18T00:44:42;6.18;;;2.05;;
23680;SDS011;62915;50.832;4.462;2022-11-18T00:47:07;3.78;;;1.92;;
23680;SDS011;62915;50.832;4.462;2022-11-18T00:49:33;6.80;;;2.40;;
23680;SDS011;62915;50.832;4.462;2022-11-18T00:51:59;5.50;;;2.28;;
23680;SDS011;62915;50.832;4.462;2022-11-18T00:54:25;4.85;;;2.17;;
23680;SDS011;62915;50.832;4.462;2022-11-18T00:56:51;7.53;;;2.63;;
23680;SDS011;62915;50.832;4.462;2022-11-18T00:59:17;6.93;;;2.53;;
23680;SDS011;62915;50.832;4.462;2022-11-18T01:01:43;5.80;;;1.90;;
23680;SDS011;62915;50.832;4.462;2022-11-18T01:04:08;8.45;;;2.30;;
23680;SDS011;62915;50.832;4.462;2022-11-18T01:06:34;7.80;;;2.05;;
23680;SDS011;62915;50.832;4.462;2022-11-18T01:09:00;6.00;;;2.00;;
23680;SDS011;62915;50.832;4.462;2022-11-18T01:11:26;4.32;;;2.10;;
23680;SDS011;62915;50.832;4.462;2022-11-18T01:14:10;7.85;;;2.35;;
23680;SDS011;62915;50.832;4.462;2022-11-18T01:16:35;5.13;;;2.15;;
23680;SDS011;62915;50.832;4.462;2022-11-18T01:19:01;5.35;;;2.00;;
23680;SDS011;62915;50.832;4.462;2022-11-18T01:21:27;9.40;;;2.60;;
23680;SDS011;62915;50.832;4.462;2022-11-18T01:23:53;4.53;;;2.08;;
23680;SDS011;62915;50.832;4.462;2022-11-18T01:26:19;9.98;;;2.50;;
23680;SDS011;62915;50.832;4.462;2022-11-18T01:28:44;5.72;;;1.92;;
23680;SDS011;62915;50.832;4.462;2022-11-18T01:31:12;9.82;;;2.03;;
23680;SDS011;62915;50.832;4.462;2022-11-18T01:33:39;7.22;;;2.20;;
23680;SDS011;62915;50.832;4.462;2022-11-18T01:36:22;2.72;;;1.60;;
23680;SDS011;62915;50.832;4.462;2022-11-18T01:38:49;3.47;;;1.90;;
23680;SDS011;62915;50.832;4.462;2022-11-18T01:41:16;5.10;;;2.20;;
23680;SDS011;62915;50.832;4.462;2022-11-18T01:43:48;2.65;;;2.03;;
23680;SDS011;62915;50.832;4.462;2022-11-18T01:46:20;3.05;;;2.17;;
23680;SDS011;62915;50.832;4.462;2022-11-18T01:48:49;3.22;;;2.20;;
23680;SDS011;62915;50.832;4.462;2022-11-18T01:51:21;6.55;;;2.25;;
23680;SDS011;62915;50.832;4.462;2022-11-18T01:53:51;7.68;;;2.00;;
23680;SDS011;62915;50.832;4.462;2022-11-18T01:56:32;7.57;;;2.40;;
23680;SDS011;62915;50.832;4.462;2022-11-18T01:59:17;6.40;;;2.05;;
23680;SDS011;62915;50.832;4.462;2022-11-18T02:01:46;3.83;;;1.73;;
23680;SDS011;62915;50.832;4.462;2022-11-18T02:04:12;5.82;;;1.70;;
23680;SDS011;62915;50.832;4.462;2022-11-18T02:06:40;4.50;;;1.95;;
23680;SDS011;62915;50.832;4.462;2022-11-18T02:09:07;4.97;;;1.90;;
23680;SDS011;62915;50.832;4.462;2022-11-18T02:11:33;4.45;;;1.85;;
23680;SDS011;62915;50.832;4.462;2022-11-18T02:14:18;7.20;;;1.90;;
23680;SDS011;62915;50.832;4.462;2022-11-18T02:25:21;5.40;;;1.92;;
23680;SDS011;62915;50.832;4.462;2022-11-18T02:28:17;3.65;;;2.08;;
23680;SDS011;62915;50.832;4.462;2022-11-18T02:31:16;6.65;;;2.35;;
23680;SDS011;62915;50.832;4.462;2022-11-18T02:36:30;4.20;;;2.03;;
23680;SDS011;62915;50.832;4.462;2022-11-18T02:39:07;6.05;;;2.17;;
23680;SDS011;62915;50.832;4.462;2022-11-18T02:41:39;3.95;;;1.90;;
23680;SDS011;62915;50.832;4.462;2022-11-18T02:44:12;3.88;;;2.17;;
23680;SDS011;62915;50.832;4.462;2022-11-18T02:46:43;4.45;;;2.10;;
23680;SDS011;62915;50.832;4.462;2022-11-18T02:49:19;3.30;;;1.90;;
23680;SDS011;62915;50.832;4.462;2022-11-18T02:51:49;4.57;;;2.30;;
23680;SDS011;62915;50.832;4.462;2022-11-18T02:54:17;3.95;;;2.05;;
23680;SDS011;62915;50.832;4.462;2022-11-18T02:56:44;3.60;;;2.10;;
23680;SDS011;62915;50.832;4.462;2022-11-18T02:59:11;4.55;;;2.17;;
23680;SDS011;62915;50.832;4.462;2022-11-18T03:01:41;5.45;;;2.28;;
23680;SDS011;62915;50.832;4.462;2022-11-18T03:04:07;4.72;;;2.50;;
23680;SDS011;62915;50.832;4.462;2022-11-18T03:09:05;4.22;;;2.35;;
23680;SDS011;62915;50.832;4.462;2022-11-18T03:11:50;5.13;;;2.28;;
23680;SDS011;62915;50.832;4.462;2022-11-18T03:14:49;3.67;;;2.00;;
23680;SDS011;62915;50.832;4.462;2022-11-18T03:20:22;8.50;;;2.58;;
23680;SDS011;62915;50.832;4.462;2022-11-18T03:26:10;6.10;;;2.38;;
23680;SDS011;62915;50.832;4.462;2022-11-18T03:33:47;6.95;;;2.25;;
23680;SDS011;62915;50.832;4.462;2022-11-18T03:36:17;8.80;;;2.30;;
23680;SDS011;62915;50.832;4.462;2022-11-18T03:38:56;5.70;;;2.42;;
23680;SDS011;62915;50.832;4.462;2022-11-18T03:41:25;6.43;;;2.30;;
23680;SDS011;62915;50.832;4.462;2022-11-18T03:43:57;6.03;;;2.33;;
23680;SDS011;62915;50.832;4.462;2022-11-18T03:46:30;9.15;;;2.60;;
23680;SDS011;62915;50.832;4.462;2022-11-18T03:49:02;4.72;;;2.40;;
23680;SDS011;62915;50.832;4.462;2022-11-18T03:51:41;4.05;;;2.30;;
23680;SDS011;62915;50.832;4.462;2022-11-18T03:54:12;5.40;;;2.47;;
23680;SDS011;62915;50.832;4.462;2022-11-18T03:57:13;6.13;;;2.60;;
23680;SDS011;62915;50.832;4.462;2022-11-18T03:59:50;8.70;;;2.78;;
23680;SDS011;62915;50.832;4.462;2022-11-18T04:02:24;4.85;;;2.03;;
23680;SDS011;62915;50.832;4.462;2022-11-18T04:04:52;7.40;;;2.78;;
23680;SDS011;62915;50.832;4.462;2022-11-18T04:15:53;7.88;;;2.97;;
23680;SDS011;62915;50.832;4.462;2022-11-18T04:18:19;5.82;;;2.35;;
23680;SDS011;62915;50.832;4.462;2022-11-18T04:20:45;7.07;;;2.70;;
23680;SDS011;62915;50.832;4.462;2022-11-18T04:23:11;7.68;;;2.80;;
23680;SDS011;62915;50.832;4.462;2022-11-18T04:25:37;7.13;;;3.00;;
23680;SDS011;62915;50.832;4.462;2022-11-18T04:28:03;5.05;;;2.90;;
23680;SDS011;62915;50.832;4.462;2022-11-18T04:30:29;6.28;;;2.83;;
23680;SDS011;62915;50.832;4.462;2022-11-18T04:32:55;6.18;;;2.38;;
23680;SDS011;62915;50.832;4.462;2022-11-18T04:35:21;3.50;;;2.10;;
23680;SDS011;62915;50.832;4.462;2022-11-18T04:37:47;4.20;;;2.47;;
23680;SDS011;62915;50.832;4.462;2022-11-18T04:40:12;2.67;;;2.40;;
23680;SDS011;62915;50.832;4.462;2022-11-18T04:42:38;6.70;;;2.85;;
23680;SDS011;62915;50.832;4.462;2022-11-18T04:45:04;10.20;;;2.45;;
23680;SDS011;62915;50.832;4.462;2022-11-18T04:47:30;5.25;;;2.80;;
23680;SDS011;62915;50.832;4.462;2022-11-18T04:49:56;6.70;;;2.55;;
23680;SDS011;62915;50.832;4.462;2022-11-18T04:52:23;7.85;;;2.70;;
23680;SDS011;62915;50.832;4.462;2022-11-18T04:54:49;5.85;;;2.95;;
23680;SDS011;62915;50.832;4.462;2022-11-18T04:57:15;6.97;;;2.35;;
23680;SDS011;62915;50.832;4.462;2022-11-18T04:59:41;6.10;;;2.95;;
23680;SDS011;62915;50.832;4.462;2022-11-18T05:02:07;8.45;;;2.70;;
23680;SDS011;62915;50.832;4.462;2022-11-18T05:04:33;5.63;;;2.53;;
23680;SDS011;62915;50.832;4.462;2022-11-18T05:06:59;6.57;;;2.45;;
23680;SDS011;62915;50.832;4.462;2022-11-18T05:09:26;3.17;;;2.22;;
23680;SDS011;62915;50.832;4.462;2022-11-18T05:11:52;8.05;;;3.25;;
23680;SDS011;62915;50.832;4.462;2022-11-18T05:14:37;6.20;;;2.42;;
23680;SDS011;62915;50.832;4.462;2022-11-18T05:17:03;8.07;;;2.20;;
23680;SDS011;62915;50.832;4.462;2022-11-18T05:19:30;6.78;;;2.70;;
23680;SDS011;62915;50.832;4.462;2022-11-18T05:21:56;8.25;;;2.17;;
23680;SDS011;62915;50.832;4.462;2022-11-18T05:24:22;9.90;;;2.88;;
23680;SDS011;62915;50.832;4.462;2022-11-18T05:26:48;4.70;;;2.33;;
23680;SDS011;62915;50.832;4.462;2022-11-18T05:29:16;3.33;;;2.08;;
23680;SDS011;62915;50.832;4.462;2022-11-18T05:31:43;8.07;;;2.35;;
23680;SDS011;62915;50.832;4.462;2022-11-18T05:34:10;5.88;;;2.25;;
23680;SDS011;62915;50.832;4.462;2022-11-18T05:36:36;5.40;;;2.30;;
23680;SDS011;62915;50.832;4.462;2022-11-18T05:39:02;8.43;;;2.60;;
23680;SDS011;62915;50.832;4.462;2022-11-18T05:41:28;8.02;;;2.28;;
23680;SDS011;62915;50.832;4.462;2022-11-18T05:44:12;6.07;;;2.28;;
23680;SDS011;62915;50.832;4.462;2022-11-18T05:46:38;6.18;;;2.28;;
23680;SDS011;62915;50.832;4.462;2022-11-18T05:49:04;8.30;;;2.53;;
23680;SDS011;62915;50.832;4.462;2022-11-18T05:51:30;7.93;;;2.60;;
23680;SDS011;62915;50.832;4.462;2022-11-18T05:53:56;8.63;;;2.30;;
23680;SDS011;62915;50.832;4.462;2022-11-18T05:56:29;4.63;;;2.47;;
23680;SDS011;62915;50.832;4.462;2022-11-18T05:59:01;4.90;;;2.63;;
23680;SDS011;62915;50.832;4.462;2022-11-18T06:03:55;5.13;;;2.75;;
23680;SDS011;62915;50.832;4.462;2022-11-18T06:06:22;8.07;;;3.08;;
23680;SDS011;62915;50.832;4.462;2022-11-18T06:08:54;4.35;;;2.65;;
23680;SDS011;62915;50.832;4.462;2022-11-18T06:11:26;4.95;;;2.35;;
23680;SDS011;62915;50.832;4.462;2022-11-18T06:14:00;13.55;;;2.92;;
23680;SDS011;62915;50.832;4.462;2022-11-18T06:16:31;5.75;;;2.40;;
23680;SDS011;62915;50.832;4.462;2022-11-18T06:19:00;7.32;;;2.42;;
23680;SDS011;62915;50.832;4.462;2022-11-18T06:21:26;6.97;;;2.50;;
23680;SDS011;62915;50.832;4.462;2022-11-18T06:23:52;10.68;;;2.90;;
23680;SDS011;62915;50.832;4.462;2022-11-18T06:26:19;8.48;;;2.75;;
23680;SDS011;62915;50.832;4.462;2022-11-18T06:28:45;6.47;;;2.75;;
23680;SDS011;62915;50.832;4.462;2022-11-18T06:31:11;5.40;;;2.70;;
23680;SDS011;62915;50.832;4.462;2022-11-18T06:33:37;7.18;;;2.63;;
23680;SDS011;62915;50.832;4.462;2022-11-18T06:36:03;8.32;;;2.58;;
23680;SDS011;62915;50.832;4.462;2022-11-18T06:38:29;4.63;;;2.60;;
23680;SDS011;62915;50.832;4.462;2022-11-18T06:40:58;7.28;;;2.45;;
23680;SDS011;62915;50.832;4.462;2022-11-18T06:43:25;8.13;;;2.60;;
23680;SDS011;62915;50.832;4.462;2022-11-18T06:46:05;6.68;;;2.67;;
23680;SDS011;62915;50.832;4.462;2022-11-18T06:48:54;7.10;;;2.65;;
23680;SDS011;62915;50.832;4.462;2022-11-18T06:51:20;8.77;;;2.95;;
23680;SDS011;62915;50.832;4.462;2022-11-18T06:53:46;10.02;;;3.20;;
23680;SDS011;62915;50.832;4.462;2022-11-18T06:56:13;9.63;;;2.75;;
23680;SDS011;62915;50.832;4.462;2022-11-18T06:58:40;8.98;;;2.47;;
23680;SDS011;62915;50.832;4.462;2022-11-18T07:01:10;7.20;;;2.80;;
23680;SDS011;62915;50.832;4.462;2022-11-18T07:03:36;8.27;;;2.65;;
23680;SDS011;62915;50.832;4.462;2022-11-18T07:06:03;8.85;;;2.80;;
23680;SDS011;62915;50.832;4.462;2022-11-18T07:08:29;8.23;;;2.85;;
23680;SDS011;62915;50.832;4.462;2022-11-18T07:10:54;6.95;;;2.78;;
23680;SDS011;62915;50.832;4.462;2022-11-18T07:13:20;11.10;;;3.50;;
23680;SDS011;62915;50.832;4.462;2022-11-18T07:15:46;7.68;;;2.78;;
23680;SDS011;62915;50.832;4.462;2022-11-18T07:18:12;12.00;;;2.60;;
23680;SDS011;62915;50.832;4.462;2022-11-18T07:20:37;6.35;;;2.58;;
23680;SDS011;62915;50.832;4.462;2022-11-18T07:23:03;4.93;;;2.75;;
23680;SDS011;62915;50.832;4.462;2022-11-18T07:25:29;6.40;;;2.80;;
23680;SDS011;62915;50.832;4.462;2022-11-18T07:27:54;12.18;;;3.03;;
23680;SDS011;62915;50.832;4.462;2022-11-18T07:30:22;5.15;;;2.40;;
23680;SDS011;62915;50.832;4.462;2022-11-18T07:32:47;8.02;;;2.90;;
23680;SDS011;62915;50.832;4.462;2022-11-18T07:35:13;6.65;;;2.42;;
23680;SDS011;62915;50.832;4.462;2022-11-18T07:37:41;5.53;;;2.67;;
23680;SDS011;62915;50.832;4.462;2022-11-18T07:40:07;8.68;;;2.67;;
23680;SDS011;62915;50.832;4.462;2022-11-18T07:42:33;8.85;;;2.50;;
23680;SDS011;62915;50.832;4.462;2022-11-18T07:45:08;5.82;;;2.63;;
23680;SDS011;62915;50.832;4.462;2022-11-18T07:47:35;9.90;;;2.85;;
23680;SDS011;62915;50.832;4.462;2022-11-18T07:50:01;11.05;;;2.70;;
23680;SDS011;62915;50.832;4.462;2022-11-18T07:52:27;6.53;;;2.70;;
23680;SDS011;62915;50.832;4.462;2022-11-18T07:54:52;8.15;;;2.75;;
23680;SDS011;62915;50.832;4.462;2022-11-18T07:57:18;5.35;;;2.58;;
23680;SDS011;62915;50.832;4.462;2022-11-18T07:59:44;9.75;;;2.83;;
23680;SDS011;62915;50.832;4.462;2022-11-18T08:02:10;9.95;;;3.08;;
23680;SDS011;62915;50.832;4.462;2022-11-18T08:04:37;5.60;;;3.00;;
23680;SDS011;62915;50.832;4.462;2022-11-18T08:07:03;5.22;;;2.50;;
23680;SDS011;62915;50.832;4.462;2022-11-18T08:09:29;9.88;;;2.70;;
23680;SDS011;62915;50.832;4.462;2022-11-18T08:11:55;7.47;;;2.30;;
23680;SDS011;62915;50.832;4.462;2022-11-18T08:14:20;8.15;;;3.00;;
23680;SDS011;62915;50.832;4.462;2022-11-18T08:16:48;10.05;;;3.60;;
23680;SDS011;62915;50.832;4.462;2022-11-18T08:19:15;7.18;;;3.10;;
23680;SDS011;62915;50.832;4.462;2022-11-18T08:21:41;7.63;;;2.65;;
23680;SDS011;62915;50.832;4.462;2022-11-18T08:24:08;6.63;;;2.72;;
23680;SDS011;62915;50.832;4.462;2022-11-18T08:26:34;7.22;;;2.80;;
23680;SDS011;62915;50.832;4.462;2022-11-18T08:29:00;14.20;;;3.40;;
23680;SDS011;62915;50.832;4.462;2022-11-18T08:31:26;9.32;;;3.33;;
23680;SDS011;62915;50.832;4.462;2022-11-18T08:33:55;8.60;;;2.60;;
23680;SDS011;62915;50.832;4.462;2022-11-18T08:36:30;10.10;;;2.78;;
23680;SDS011;62915;50.832;4.462;2022-11-18T08:38:58;7.55;;;3.30;;
23680;SDS011;62915;50.832;4.462;2022-11-18T08:41:30;9.32;;;3.22;;
23680;SDS011;62915;50.832;4.462;2022-11-18T08:43:58;8.07;;;3.47;;
23680;SDS011;62915;50.832;4.462;2022-11-18T08:46:25;7.93;;;3.47;;
23680;SDS011;62915;50.832;4.462;2022-11-18T08:48:51;3.95;;;2.60;;
23680;SDS011;62915;50.832;4.462;2022-11-18T08:51:16;10.32;;;3.10;;
23680;SDS011;62915;50.832;4.462;2022-11-18T08:53:42;13.15;;;3.90;;
23680;SDS011;62915;50.832;4.462;2022-11-18T08:56:11;16.92;;;4.38;;
23680;SDS011;62915;50.832;4.462;2022-11-18T08:58:41;6.47;;;3.30;;
23680;SDS011;62915;50.832;4.462;2022-11-18T09:01:07;8.35;;;4.05;;
23680;SDS011;62915;50.832;4.462;2022-11-18T09:03:33;8.90;;;4.35;;
23680;SDS011;62915;50.832;4.462;2022-11-18T09:08:41;11.13;;;4.00;;
23680;SDS011;62915;50.832;4.462;2022-11-18T09:11:12;11.02;;;3.75;;
23680;SDS011;62915;50.832;4.462;2022-11-18T09:13:39;10.73;;;3.33;;
23680;SDS011;62915;50.832;4.462;2022-11-18T09:16:05;13.13;;;3.13;;
23680;SDS011;62915;50.832;4.462;2022-11-18T09:18:32;8.00;;;3.55;;
23680;SDS011;62915;50.832;4.462;2022-11-18T09:21:03;8.55;;;2.72;;
23680;SDS011;62915;50.832;4.462;2022-11-18T09:23:32;11.52;;;2.95;;
23680;SDS011;62915;50.832;4.462;2022-11-18T09:28:26;7.13;;;3.22;;
23680;SDS011;62915;50.832;4.462;2022-11-18T09:30:52;13.43;;;3.38;;
23680;SDS011;62915;50.832;4.462;2022-11-18T09:33:18;9.00;;;3.35;;
23680;SDS011;62915;50.832;4.462;2022-11-18T09:35:44;10.20;;;3.50;;
23680;SDS011;62915;50.832;4.462;2022-11-18T09:38:10;5.65;;;3.15;;
23680;SDS011;62915;50.832;4.462;2022-11-18T09:40:38;9.95;;;3.63;;
23680;SDS011;62915;50.832;4.462;2022-11-18T09:46:08;9.25;;;3.75;;
23680;SDS011;62915;50.832;4.462;2022-11-18T09:48:48;5.13;;;2.50;;
23680;SDS011;62915;50.832;4.462;2022-11-18T09:51:33;8.25;;;2.83;;
23680;SDS011;62915;50.832;4.462;2022-11-18T09:54:04;9.10;;;2.60;;
23680;SDS011;62915;50.832;4.462;2022-11-18T09:56:34;8.73;;;2.85;;
23680;SDS011;62915;50.832;4.462;2022-11-18T09:59:00;6.95;;;2.88;;
23680;SDS011;62915;50.832;4.462;2022-11-18T10:01:28;7.60;;;2.80;;
23680;SDS011;62915;50.832;4.462;2022-11-18T10:03:54;9.82;;;2.88;;
23680;SDS011;62915;50.832;4.462;2022-11-18T10:06:21;4.57;;;2.90;;
23680;SDS011;62915;50.832;4.462;2022-11-18T10:11:57;6.72;;;2.40;;
23680;SDS011;62915;50.832;4.462;2022-11-18T10:19:53;7.15;;;2.67;;
23680;SDS011;62915;50.832;4.462;2022-11-18T10:22:37;6.05;;;2.10;;
23680;SDS011;62915;50.832;4.462;2022-11-18T10:25:12;5.13;;;2.30;;
23680;SDS011;62915;50.832;4.462;2022-11-18T10:27:40;6.50;;;2.50;;
23680;SDS011;62915;50.832;4.462;2022-11-18T10:30:26;5.10;;;2.00;;
23680;SDS011;62915;50.832;4.462;2022-11-18T10:32:56;7.78;;;2.47;;
23680;SDS011;62915;50.832;4.462;2022-11-18T10:35:40;4.57;;;1.75;;
23680;SDS011;62915;50.832;4.462;2022-11-18T10:38:16;8.52;;;2.20;;
23680;SDS011;62915;50.832;4.462;2022-11-18T10:40:45;8.07;;;2.00;;
23680;SDS011;62915;50.832;4.462;2022-11-18T10:44:00;4.47;;;2.35;;
23680;SDS011;62915;50.832;4.462;2022-11-18T10:46:17;6.22;;;2.13;;
23680;SDS011;62915;50.832;4.462;2022-11-18T10:51:43;7.38;;;1.98;;
23680;SDS011;62915;50.832;4.462;2022-11-18T10:56:59;5.43;;;1.83;;
23680;SDS011;62915;50.832;4.462;2022-11-18T10:59:47;4.78;;;1.73;;
23680;SDS011;62915;50.832;4.462;2022-11-18T11:02:30;7.07;;;1.85;;
23680;SDS011;62915;50.832;4.462;2022-11-18T11:04:58;6.63;;;1.75;;
23680;SDS011;62915;50.832;4.462;2022-11-18T11:07:29;3.08;;;1.38;;
23680;SDS011;62915;50.832;4.462;2022-11-18T11:09:58;2.53;;;1.23;;
23680;SDS011;62915;50.832;4.462;2022-11-18T11:12:38;10.20;;;2.03;;
23680;SDS011;62915;50.832;4.462;2022-11-18T11:15:18;3.60;;;1.38;;
23680;SDS011;62915;50.832;4.462;2022-11-18T11:17:55;7.97;;;1.65;;
23680;SDS011;62915;50.832;4.462;2022-11-18T11:20:40;5.88;;;1.80;;
23680;SDS011;62915;50.832;4.462;2022-11-18T11:23:10;6.95;;;1.83;;
23680;SDS011;62915;50.832;4.462;2022-11-18T11:28:29;7.05;;;2.03;;
23680;SDS011;62915;50.832;4.462;2022-11-18T11:34:07;3.55;;;1.65;;
23680;SDS011;62915;50.832;4.462;2022-11-18T11:36:41;2.70;;;1.45;;
23680;SDS011;62915;50.832;4.462;2022-11-18T11:45:00;3.22;;;1.30;;
23680;SDS011;62915;50.832;4.462;2022-11-18T11:47:45;4.50;;;1.40;;
23680;SDS011;62915;50.832;4.462;2022-11-18T11:50:33;4.78;;;1.77;;
23680;SDS011;62915;50.832;4.462;2022-11-18T12:04:38;6.60;;;1.70;;
23680;SDS011;62915;50.832;4.462;2022-11-18T12:07:17;8.43;;;1.90;;
23680;SDS011;62915;50.832;4.462;2022-11-18T12:12:53;7.72;;;1.80;;
23680;SDS011;62915;50.832;4.462;2022-11-18T12:15:31;7.68;;;2.22;;
23680;SDS011;62915;50.832;4.462;2022-11-18T12:21:02;5.00;;;1.60;;
23680;SDS011;62915;50.832;4.462;2022-11-18T12:23:31;5.38;;;1.27;;
23680;SDS011;62915;50.832;4.462;2022-11-18T12:26:03;5.10;;;1.83;;
23680;SDS011;62915;50.832;4.462;2022-11-18T12:38:58;5.78;;;1.30;;
23680;SDS011;62915;50.832;4.462;2022-11-18T12:41:54;7.40;;;1.58;;
23680;SDS011;62915;50.832;4.462;2022-11-18T12:44:43;7.13;;;1.52;;
23680;SDS011;62915;50.832;4.462;2022-11-18T12:47:11;8.77;;;1.58;;
23680;SDS011;62915;50.832;4.462;2022-11-18T12:54:53;8.02;;;2.00;;
23680;SDS011;62915;50.832;4.462;2022-11-18T12:57:26;5.55;;;1.77;;
23680;SDS011;62915;50.832;4.462;2022-11-18T13:00:14;11.30;;;1.98;;
23680;SDS011;62915;50.832;4.462;2022-11-18T13:02:52;7.47;;;1.88;;
23680;SDS011;62915;50.832;4.462;2022-11-18T13:05:21;8.02;;;2.42;;
23680;SDS011;62915;50.832;4.462;2022-11-18T13:13:24;4.85;;;1.85;;
23680;SDS011;62915;50.832;4.462;2022-11-18T13:15:54;12.52;;;2.72;;
23680;SDS011;62915;50.832;4.462;2022-11-18T13:18:51;8.65;;;3.05;;
23680;SDS011;62915;50.832;4.462;2022-11-18T13:21:22;9.10;;;3.85;;
23680;SDS011;62915;50.832;4.462;2022-11-18T13:24:12;9.95;;;2.80;;
23680;SDS011;62915;50.832;4.462;2022-11-18T13:26:39;8.05;;;2.80;;
23680;SDS011;62915;50.832;4.462;2022-11-18T13:29:19;5.53;;;2.58;;
23680;SDS011;62915;50.832;4.462;2022-11-18T13:32:07;6.35;;;2.72;;
23680;SDS011;62915;50.832;4.462;2022-11-18T13:34:52;9.95;;;3.13;;
23680;SDS011;62915;50.832;4.462;2022-11-18T13:37:23;13.55;;;3.95;;
23680;SDS011;62915;50.832;4.462;2022-11-18T13:39:49;10.75;;;3.85;;
23680;SDS011;62915;50.832;4.462;2022-11-18T13:42:20;9.73;;;3.10;;
23680;SDS011;62915;50.832;4.462;2022-11-18T13:44:57;8.73;;;6.47;;
23680;SDS011;62915;50.832;4.462;2022-11-18T13:49:55;13.30;;;6.95;;
23680;SDS011;62915;50.832;4.462;2022-11-18T13:54:56;10.52;;;4.75;;
23680;SDS011;62915;50.832;4.462;2022-11-18T13:57:25;7.93;;;2.85;;
23680;SDS011;62915;50.832;4.462;2022-11-18T13:59:53;12.70;;;4.75;;
23680;SDS011;62915;50.832;4.462;2022-11-18T14:02:19;8.45;;;3.08;;
23680;SDS011;62915;50.832;4.462;2022-11-18T14:04:55;5.80;;;2.00;;
23680;SDS011;62915;50.832;4.462;2022-11-18T14:07:25;11.27;;;4.88;;
23680;SDS011;62915;50.832;4.462;2022-11-18T14:09:58;3.88;;;2.00;;
23680;SDS011;62915;50.832;4.462;2022-11-18T14:12:29;9.10;;;2.70;;
23680;SDS011;62915;50.832;4.462;2022-11-18T14:17:48;7.22;;;2.08;;
23680;SDS011;62915;50.832;4.462;2022-11-18T14:20:16;10.25;;;2.47;;
23680;SDS011;62915;50.832;4.462;2022-11-18T14:22:44;5.78;;;2.40;;
23680;SDS011;62915;50.832;4.462;2022-11-18T14:25:16;8.20;;;2.38;;
23680;SDS011;62915;50.832;4.462;2022-11-18T14:27:46;8.68;;;2.72;;
23680;SDS011;62915;50.832;4.462;2022-11-18T14:30:25;9.75;;;3.08;;
23680;SDS011;62915;50.832;4.462;2022-11-18T14:33:22;8.93;;;2.63;;
23680;SDS011;62915;50.832;4.462;2022-11-18T14:35:56;7.20;;;2.50;;
23680;SDS011;62915;50.832;4.462;2022-11-18T14:41:05;5.57;;;2.95;;
23680;SDS011;62915;50.832;4.462;2022-11-18T14:43:32;7.22;;;2.50;;
23680;SDS011;62915;50.832;4.462;2022-11-18T14:46:00;9.95;;;2.90;;
23680;SDS011;62915;50.832;4.462;2022-11-18T14:48:27;7.10;;;2.60;;
23680;SDS011;62915;50.832;4.462;2022-11-18T14:50:54;9.90;;;3.00;;
23680;SDS011;62915;50.832;4.462;2022-11-18T14:53:21;8.05;;;2.80;;
23680;SDS011;62915;50.832;4.462;2022-11-18T14:55:48;8.50;;;2.60;;
23680;SDS011;62915;50.832;4.462;2022-11-18T14:58:15;9.85;;;2.75;;
23680;SDS011;62915;50.832;4.462;2022-11-18T15:00:41;7.70;;;2.63;;
23680;SDS011;62915;50.832;4.462;2022-11-18T15:03:08;6.47;;;2.28;;
23680;SDS011;62915;50.832;4.462;2022-11-18T15:05:34;15.10;;;3.40;;
23680;SDS011;62915;50.832;4.462;2022-11-18T15:08:00;9.13;;;2.70;;
23680;SDS011;62915;50.832;4.462;2022-11-18T15:10:26;14.07;;;3.45;;
23680;SDS011;62915;50.832;4.462;2022-11-18T15:12:52;8.85;;;3.40;;
23680;SDS011;62915;50.832;4.462;2022-11-18T15:15:18;10.98;;;3.65;;
23680;SDS011;62915;50.832;4.462;2022-11-18T15:17:44;8.73;;;4.03;;
23680;SDS011;62915;50.832;4.462;2022-11-18T15:20:11;11.77;;;3.55;;
23680;SDS011;62915;50.832;4.462;2022-11-18T15:22:39;9.50;;;3.65;;
23680;SDS011;62915;50.832;4.462;2022-11-18T15:25:05;10.48;;;3.75;;
23680;SDS011;62915;50.832;4.462;2022-11-18T15:27:32;15.65;;;3.88;;
23680;SDS011;62915;50.832;4.462;2022-11-18T15:29:58;14.65;;;3.90;;
23680;SDS011;62915;50.832;4.462;2022-11-18T15:32:24;9.43;;;3.10;;
23680;SDS011;62915;50.832;4.462;2022-11-18T15:34:49;10.07;;;3.25;;
23680;SDS011;62915;50.832;4.462;2022-11-18T15:37:15;11.52;;;3.20;;
23680;SDS011;62915;50.832;4.462;2022-11-18T15:39:41;12.85;;;3.58;;
23680;SDS011;62915;50.832;4.462;2022-11-18T15:42:06;9.75;;;3.70;;
23680;SDS011;62915;50.832;4.462;2022-11-18T15:44:32;9.75;;;3.63;;
23680;SDS011;62915;50.832;4.462;2022-11-18T15:46:58;13.70;;;3.50;;
23680;SDS011;62915;50.832;4.462;2022-11-18T15:49:25;9.25;;;3.30;;
23680;SDS011;62915;50.832;4.462;2022-11-18T15:51:51;15.10;;;3.42;;
23680;SDS011;62915;50.832;4.462;2022-11-18T15:54:16;9.15;;;3.30;;
23680;SDS011;62915;50.832;4.462;2022-11-18T15:56:43;13.15;;;2.85;;
23680;SDS011;62915;50.832;4.462;2022-11-18T15:59:10;7.03;;;2.42;;
23680;SDS011;62915;50.832;4.462;2022-11-18T16:01:38;7.80;;;3.15;;
23680;SDS011;62915;50.832;4.462;2022-11-18T16:04:06;8.07;;;2.85;;
23680;SDS011;62915;50.832;4.462;2022-11-18T16:06:33;7.93;;;2.60;;
23680;SDS011;62915;50.832;4.462;2022-11-18T16:08:59;9.45;;;3.05;;
23680;SDS011;62915;50.832;4.462;2022-11-18T16:11:25;8.52;;;2.85;;
23680;SDS011;62915;50.832;4.462;2022-11-18T16:14:11;7.63;;;3.83;;
23680;SDS011;62915;50.832;4.462;2022-11-18T16:16:39;8.70;;;3.38;;
23680;SDS011;62915;50.832;4.462;2022-11-18T16:19:06;17.67;;;6.93;;
23680;SDS011;62915;50.832;4.462;2022-11-18T16:21:35;14.25;;;6.47;;
23680;SDS011;62915;50.832;4.462;2022-11-18T16:24:06;10.80;;;3.10;;
23680;SDS011;62915;50.832;4.462;2022-11-18T16:26:35;11.95;;;2.97;;
23680;SDS011;62915;50.832;4.462;2022-11-18T16:29:04;6.82;;;3.70;;
23680;SDS011;62915;50.832;4.462;2022-11-18T16:31:31;11.85;;;6.80;;
23680;SDS011;62915;50.832;4.462;2022-11-18T16:34:08;11.27;;;3.65;;
23680;SDS011;62915;50.832;4.462;2022-11-18T16:36:37;11.77;;;3.95;;
23680;SDS011;62915;50.832;4.462;2022-11-18T16:39:08;10.27;;;3.83;;
23680;SDS011;62915;50.832;4.462;2022-11-18T16:41:36;11.07;;;4.60;;
23680;SDS011;62915;50.832;4.462;2022-11-18T16:44:03;8.35;;;2.95;;
23680;SDS011;62915;50.832;4.462;2022-11-18T16:46:31;10.65;;;3.40;;
23680;SDS011;62915;50.832;4.462;2022-11-18T16:48:58;14.57;;;8.07;;
23680;SDS011;62915;50.832;4.462;2022-11-18T16:51:24;12.35;;;3.88;;
23680;SDS011;62915;50.832;4.462;2022-11-18T16:53:52;7.55;;;3.47;;
23680;SDS011;62915;50.832;4.462;2022-11-18T16:56:20;10.13;;;3.13;;
23680;SDS011;62915;50.832;4.462;2022-11-18T16:58:47;13.77;;;7.15;;
23680;SDS011;62915;50.832;4.462;2022-11-18T17:01:13;8.70;;;3.50;;